sensor_id;sensor_type;location;lat;lon;timestamp;P1;durP1;ratioP1;P2;durP2;ratioP2
72791;SDS011;60907;53.268;8.764;2022-08-21T00:00:45;4.20;;;1.95;;
72791;SDS011;60907;53.268;8.764;2022-08-21T00:03:11;3.78;;;1.58;;
72791;SDS011;60907;53.268;8.764;2022-08-21T00:05:39;3.03;;;1.63;;
72791;SDS011;60907;53.268;8.764;2022-08-21T00:08:07;5.30;;;2.80;;
72791;SDS011;60907;53.268;8.764;2022-08-21T00:10:33;2.70;;;2.13;;
72791;SDS011;60907;53.268;8.764;2022-08-21T00:12:59;2.85;;;1.77;;
72791;SDS011;60907;53.268;8.764;2022-08-21T00:15:27;4.00;;;1.92;;
72791;SDS011;60907;53.268;8.764;2022-08-21T00:17:54;2.88;;;1.67;;
72791;SDS011;60907;53.268;8.764;2022-08-21T00:20:23;3.83;;;1.80;;
72791;SDS011;60907;53.268;8.764;2022-08-21T00:22:49;3.90;;;1.77;;
72791;SDS011;60907;53.268;8.764;2022-08-21T00:25:16;4.45;;;1.77;;
72791;SDS011;60907;53.268;8.764;2022-08-21T00:27:42;2.65;;;1.70;;
72791;SDS011;60907;53.268;8.764;2022-08-21T00:30:08;2.67;;;1.40;;
72791;SDS011;60907;53.268;8.764;2022-08-21T00:32:36;4.18;;;1.63;;
72791;SDS011;60907;53.268;8.764;2022-08-21T00:35:04;3.38;;;1.90;;
72791;SDS011;60907;53.268;8.764;2022-08-21T00:37:32;5.00;;;2.10;;
72791;SDS011;60907;53.268;8.764;2022-08-21T00:39:58;1.83;;;1.58;;
72791;SDS011;60907;53.268;8.764;2022-08-21T00:42:23;4.03;;;2.00;;
72791;SDS011;60907;53.268;8.764;2022-08-21T00:44:49;8.02;;;1.95;;
72791;SDS011;60907;53.268;8.764;2022-08-21T00:47:16;3.92;;;1.92;;
72791;SDS011;60907;53.268;8.764;2022-08-21T00:49:42;4.30;;;1.80;;
72791;SDS011;60907;53.268;8.764;2022-08-21T00:52:09;3.65;;;1.88;;
72791;SDS011;60907;53.268;8.764;2022-08-21T00:54:48;2.88;;;2.20;;
72791;SDS011;60907;53.268;8.764;2022-08-21T00:57:15;4.90;;;2.28;;
72791;SDS011;60907;53.268;8.764;2022-08-21T00:59:46;4.57;;;1.83;;
72791;SDS011;60907;53.268;8.764;2022-08-21T01:02:15;5.38;;;1.95;;
72791;SDS011;60907;53.268;8.764;2022-08-21T01:04:41;5.35;;;1.45;;
72791;SDS011;60907;53.268;8.764;2022-08-21T01:07:06;5.03;;;1.77;;
72791;SDS011;60907;53.268;8.764;2022-08-21T01:09:32;6.13;;;2.25;;
72791;SDS011;60907;53.268;8.764;2022-08-21T01:11:57;5.35;;;2.00;;
72791;SDS011;60907;53.268;8.764;2022-08-21T01:14:23;4.88;;;2.08;;
72791;SDS011;60907;53.268;8.764;2022-08-21T01:16:50;3.58;;;1.77;;
72791;SDS011;60907;53.268;8.764;2022-08-21T01:19:17;4.72;;;2.30;;
72791;SDS011;60907;53.268;8.764;2022-08-21T01:21:43;3.25;;;1.80;;
72791;SDS011;60907;53.268;8.764;2022-08-21T01:24:09;4.65;;;2.00;;
72791;SDS011;60907;53.268;8.764;2022-08-21T01:26:35;2.70;;;1.75;;
72791;SDS011;60907;53.268;8.764;2022-08-21T01:29:04;5.47;;;1.95;;
72791;SDS011;60907;53.268;8.764;2022-08-21T01:31:48;4.88;;;2.30;;
72791;SDS011;60907;53.268;8.764;2022-08-21T01:34:14;4.63;;;2.20;;
72791;SDS011;60907;53.268;8.764;2022-08-21T01:36:41;4.57;;;1.98;;
72791;SDS011;60907;53.268;8.764;2022-08-21T01:39:07;3.80;;;2.08;;
72791;SDS011;60907;53.268;8.764;2022-08-21T01:41:32;5.53;;;1.73;;
72791;SDS011;60907;53.268;8.764;2022-08-21T01:43:58;3.67;;;1.83;;
72791;SDS011;60907;53.268;8.764;2022-08-21T01:46:23;4.25;;;1.75;;
72791;SDS011;60907;53.268;8.764;2022-08-21T01:48:49;3.13;;;1.40;;
72791;SDS011;60907;53.268;8.764;2022-08-21T01:51:14;6.88;;;2.00;;
72791;SDS011;60907;53.268;8.764;2022-08-21T01:53:40;2.40;;;1.95;;
72791;SDS011;60907;53.268;8.764;2022-08-21T01:56:06;3.00;;;1.60;;
72791;SDS011;60907;53.268;8.764;2022-08-21T01:58:33;5.25;;;1.80;;
72791;SDS011;60907;53.268;8.764;2022-08-21T02:00:59;3.95;;;2.03;;
72791;SDS011;60907;53.268;8.764;2022-08-21T02:03:27;3.97;;;1.70;;
72791;SDS011;60907;53.268;8.764;2022-08-21T02:05:53;3.88;;;1.80;;
72791;SDS011;60907;53.268;8.764;2022-08-21T02:08:18;4.10;;;1.55;;
72791;SDS011;60907;53.268;8.764;2022-08-21T02:10:44;3.80;;;1.80;;
72791;SDS011;60907;53.268;8.764;2022-08-21T02:13:11;5.07;;;2.00;;
72791;SDS011;60907;53.268;8.764;2022-08-21T02:15:37;4.45;;;1.77;;
72791;SDS011;60907;53.268;8.764;2022-08-21T02:18:02;4.05;;;1.80;;
72791;SDS011;60907;53.268;8.764;2022-08-21T02:20:32;2.53;;;1.38;;
72791;SDS011;60907;53.268;8.764;2022-08-21T02:22:59;4.22;;;1.55;;
72791;SDS011;60907;53.268;8.764;2022-08-21T02:25:25;4.97;;;2.03;;
72791;SDS011;60907;53.268;8.764;2022-08-21T02:27:52;4.22;;;1.83;;
72791;SDS011;60907;53.268;8.764;2022-08-21T02:30:23;3.60;;;2.03;;
72791;SDS011;60907;53.268;8.764;2022-08-21T02:32:50;2.78;;;1.60;;
72791;SDS011;60907;53.268;8.764;2022-08-21T02:35:16;4.93;;;1.95;;
72791;SDS011;60907;53.268;8.764;2022-08-21T02:37:43;6.95;;;1.90;;
72791;SDS011;60907;53.268;8.764;2022-08-21T02:40:13;4.00;;;1.70;;
72791;SDS011;60907;53.268;8.764;2022-08-21T02:42:40;4.45;;;1.73;;
72791;SDS011;60907;53.268;8.764;2022-08-21T02:45:05;4.15;;;1.42;;
72791;SDS011;60907;53.268;8.764;2022-08-21T02:47:32;4.05;;;1.80;;
72791;SDS011;60907;53.268;8.764;2022-08-21T02:49:57;5.23;;;1.63;;
72791;SDS011;60907;53.268;8.764;2022-08-21T02:52:22;3.42;;;1.40;;
72791;SDS011;60907;53.268;8.764;2022-08-21T02:54:49;2.65;;;1.60;;
72791;SDS011;60907;53.268;8.764;2022-08-21T02:57:14;5.75;;;2.00;;
72791;SDS011;60907;53.268;8.764;2022-08-21T02:59:39;2.40;;;1.47;;
72791;SDS011;60907;53.268;8.764;2022-08-21T03:02:05;4.75;;;1.92;;
72791;SDS011;60907;53.268;8.764;2022-08-21T03:04:31;5.05;;;2.65;;
72791;SDS011;60907;53.268;8.764;2022-08-21T03:06:57;5.43;;;2.10;;
72791;SDS011;60907;53.268;8.764;2022-08-21T03:09:22;3.53;;;1.45;;
72791;SDS011;60907;53.268;8.764;2022-08-21T03:11:49;6.75;;;1.98;;
72791;SDS011;60907;53.268;8.764;2022-08-21T03:14:15;3.83;;;1.75;;
72791;SDS011;60907;53.268;8.764;2022-08-21T03:16:40;3.45;;;2.33;;
72791;SDS011;60907;53.268;8.764;2022-08-21T03:19:07;4.40;;;2.08;;
72791;SDS011;60907;53.268;8.764;2022-08-21T03:21:32;3.50;;;2.08;;
72791;SDS011;60907;53.268;8.764;2022-08-21T03:23:58;4.70;;;1.70;;
72791;SDS011;60907;53.268;8.764;2022-08-21T03:26:23;5.10;;;1.60;;
72791;SDS011;60907;53.268;8.764;2022-08-21T03:28:49;3.65;;;1.80;;
72791;SDS011;60907;53.268;8.764;2022-08-21T03:31:15;3.65;;;1.85;;
72791;SDS011;60907;53.268;8.764;2022-08-21T03:33:42;3.40;;;1.23;;
72791;SDS011;60907;53.268;8.764;2022-08-21T03:36:07;3.13;;;1.60;;
72791;SDS011;60907;53.268;8.764;2022-08-21T03:38:34;3.75;;;1.42;;
72791;SDS011;60907;53.268;8.764;2022-08-21T03:41:00;3.85;;;2.00;;
72791;SDS011;60907;53.268;8.764;2022-08-21T03:43:26;3.83;;;1.52;;
72791;SDS011;60907;53.268;8.764;2022-08-21T03:45:52;4.53;;;1.65;;
72791;SDS011;60907;53.268;8.764;2022-08-21T03:48:17;3.17;;;1.58;;
72791;SDS011;60907;53.268;8.764;2022-08-21T03:50:43;5.00;;;2.05;;
72791;SDS011;60907;53.268;8.764;2022-08-21T03:53:11;5.43;;;1.48;;
72791;SDS011;60907;53.268;8.764;2022-08-21T03:55:37;3.95;;;2.10;;
72791;SDS011;60907;53.268;8.764;2022-08-21T03:58:03;4.57;;;1.58;;
72791;SDS011;60907;53.268;8.764;2022-08-21T04:00:29;6.57;;;1.65;;
72791;SDS011;60907;53.268;8.764;2022-08-21T04:02:54;3.22;;;1.75;;
72791;SDS011;60907;53.268;8.764;2022-08-21T04:05:20;6.20;;;1.65;;
72791;SDS011;60907;53.268;8.764;2022-08-21T04:07:56;4.75;;;1.90;;
72791;SDS011;60907;53.268;8.764;2022-08-21T04:10:23;4.32;;;2.03;;
72791;SDS011;60907;53.268;8.764;2022-08-21T04:12:49;3.72;;;1.95;;
72791;SDS011;60907;53.268;8.764;2022-08-21T04:15:16;3.78;;;1.67;;
72791;SDS011;60907;53.268;8.764;2022-08-21T04:17:42;5.28;;;1.70;;
72791;SDS011;60907;53.268;8.764;2022-08-21T04:20:07;6.43;;;1.70;;
72791;SDS011;60907;53.268;8.764;2022-08-21T04:22:33;4.32;;;1.80;;
72791;SDS011;60907;53.268;8.764;2022-08-21T04:24:58;3.85;;;1.70;;
72791;SDS011;60907;53.268;8.764;2022-08-21T04:27:24;3.73;;;2.17;;
72791;SDS011;60907;53.268;8.764;2022-08-21T04:29:49;3.92;;;1.70;;
72791;SDS011;60907;53.268;8.764;2022-08-21T04:32:21;5.75;;;1.80;;
72791;SDS011;60907;53.268;8.764;2022-08-21T04:34:49;3.88;;;1.80;;
72791;SDS011;60907;53.268;8.764;2022-08-21T04:37:15;4.95;;;1.73;;
72791;SDS011;60907;53.268;8.764;2022-08-21T04:39:41;5.03;;;1.88;;
72791;SDS011;60907;53.268;8.764;2022-08-21T04:42:06;4.93;;;1.90;;
72791;SDS011;60907;53.268;8.764;2022-08-21T04:44:32;4.80;;;1.83;;
72791;SDS011;60907;53.268;8.764;2022-08-21T04:46:58;2.38;;;1.80;;
72791;SDS011;60907;53.268;8.764;2022-08-21T04:49:23;4.23;;;1.50;;
72791;SDS011;60907;53.268;8.764;2022-08-21T04:51:49;5.30;;;1.70;;
72791;SDS011;60907;53.268;8.764;2022-08-21T04:54:17;3.63;;;1.98;;
72791;SDS011;60907;53.268;8.764;2022-08-21T04:56:45;2.38;;;1.70;;
72791;SDS011;60907;53.268;8.764;2022-08-21T04:59:14;2.85;;;1.55;;
72791;SDS011;60907;53.268;8.764;2022-08-21T05:01:42;4.38;;;2.30;;
72791;SDS011;60907;53.268;8.764;2022-08-21T05:04:10;3.75;;;1.95;;
72791;SDS011;60907;53.268;8.764;2022-08-21T05:06:37;2.88;;;1.63;;
72791;SDS011;60907;53.268;8.764;2022-08-21T05:09:04;5.47;;;2.47;;
72791;SDS011;60907;53.268;8.764;2022-08-21T05:11:30;4.72;;;2.15;;
72791;SDS011;60907;53.268;8.764;2022-08-21T05:13:56;5.72;;;2.03;;
72791;SDS011;60907;53.268;8.764;2022-08-21T05:16:22;3.85;;;2.35;;
72791;SDS011;60907;53.268;8.764;2022-08-21T05:18:47;3.45;;;2.20;;
72791;SDS011;60907;53.268;8.764;2022-08-21T05:21:13;4.80;;;2.20;;
72791;SDS011;60907;53.268;8.764;2022-08-21T05:23:38;5.03;;;2.47;;
72791;SDS011;60907;53.268;8.764;2022-08-21T05:26:03;4.38;;;2.17;;
72791;SDS011;60907;53.268;8.764;2022-08-21T05:28:29;4.53;;;2.47;;
72791;SDS011;60907;53.268;8.764;2022-08-21T05:30:55;5.07;;;2.13;;
72791;SDS011;60907;53.268;8.764;2022-08-21T05:33:21;3.45;;;2.00;;
72791;SDS011;60907;53.268;8.764;2022-08-21T05:35:48;4.30;;;2.47;;
72791;SDS011;60907;53.268;8.764;2022-08-21T05:38:15;6.38;;;2.42;;
72791;SDS011;60907;53.268;8.764;2022-08-21T05:40:40;4.80;;;2.50;;
72791;SDS011;60907;53.268;8.764;2022-08-21T05:43:06;5.55;;;3.10;;
72791;SDS011;60907;53.268;8.764;2022-08-21T05:45:32;5.22;;;2.50;;
72791;SDS011;60907;53.268;8.764;2022-08-21T05:47:58;7.78;;;3.00;;
72791;SDS011;60907;53.268;8.764;2022-08-21T05:50:30;6.63;;;3.03;;
72791;SDS011;60907;53.268;8.764;2022-08-21T05:52:56;7.53;;;3.53;;
72791;SDS011;60907;53.268;8.764;2022-08-21T05:55:21;4.18;;;2.90;;
72791;SDS011;60907;53.268;8.764;2022-08-21T05:57:47;6.28;;;3.25;;
72791;SDS011;60907;53.268;8.764;2022-08-21T06:00:12;9.23;;;3.57;;
72791;SDS011;60907;53.268;8.764;2022-08-21T06:02:39;6.03;;;3.20;;
72791;SDS011;60907;53.268;8.764;2022-08-21T06:05:05;5.90;;;3.38;;
72791;SDS011;60907;53.268;8.764;2022-08-21T06:07:31;5.78;;;3.47;;
72791;SDS011;60907;53.268;8.764;2022-08-21T06:09:56;9.07;;;4.07;;
72791;SDS011;60907;53.268;8.764;2022-08-21T06:12:21;6.85;;;2.85;;
72791;SDS011;60907;53.268;8.764;2022-08-21T06:14:47;7.03;;;3.42;;
72791;SDS011;60907;53.268;8.764;2022-08-21T06:17:12;6.22;;;3.13;;
72791;SDS011;60907;53.268;8.764;2022-08-21T06:19:39;8.27;;;3.42;;
72791;SDS011;60907;53.268;8.764;2022-08-21T06:22:05;5.05;;;3.40;;
72791;SDS011;60907;53.268;8.764;2022-08-21T06:24:31;8.40;;;2.95;;
72791;SDS011;60907;53.268;8.764;2022-08-21T06:26:57;5.35;;;3.42;;
72791;SDS011;60907;53.268;8.764;2022-08-21T06:29:22;7.07;;;3.53;;
72791;SDS011;60907;53.268;8.764;2022-08-21T06:31:49;6.43;;;3.92;;
72791;SDS011;60907;53.268;8.764;2022-08-21T06:34:16;6.10;;;3.97;;
72791;SDS011;60907;53.268;8.764;2022-08-21T06:36:42;6.68;;;4.10;;
72791;SDS011;60907;53.268;8.764;2022-08-21T06:39:07;7.43;;;3.97;;
72791;SDS011;60907;53.268;8.764;2022-08-21T06:41:33;10.57;;;4.35;;
72791;SDS011;60907;53.268;8.764;2022-08-21T06:43:59;8.80;;;4.18;;
72791;SDS011;60907;53.268;8.764;2022-08-21T06:46:25;6.45;;;3.20;;
72791;SDS011;60907;53.268;8.764;2022-08-21T06:48:52;6.47;;;3.58;;
72791;SDS011;60907;53.268;8.764;2022-08-21T06:51:17;6.55;;;3.05;;
72791;SDS011;60907;53.268;8.764;2022-08-21T06:53:44;5.88;;;3.03;;
72791;SDS011;60907;53.268;8.764;2022-08-21T06:56:09;7.28;;;3.65;;
72791;SDS011;60907;53.268;8.764;2022-08-21T06:58:35;5.30;;;3.00;;
72791;SDS011;60907;53.268;8.764;2022-08-21T07:01:01;6.18;;;3.40;;
72791;SDS011;60907;53.268;8.764;2022-08-21T07:03:28;10.50;;;2.75;;
72791;SDS011;60907;53.268;8.764;2022-08-21T07:06:05;5.18;;;2.78;;
72791;SDS011;60907;53.268;8.764;2022-08-21T07:08:31;5.70;;;2.53;;
72791;SDS011;60907;53.268;8.764;2022-08-21T07:10:58;7.68;;;2.95;;
72791;SDS011;60907;53.268;8.764;2022-08-21T07:13:24;5.20;;;3.22;;
72791;SDS011;60907;53.268;8.764;2022-08-21T07:15:50;7.15;;;2.95;;
72791;SDS011;60907;53.268;8.764;2022-08-21T07:18:16;8.25;;;2.78;;
72791;SDS011;60907;53.268;8.764;2022-08-21T07:20:42;3.63;;;2.28;;
72791;SDS011;60907;53.268;8.764;2022-08-21T07:23:10;7.32;;;2.30;;
72791;SDS011;60907;53.268;8.764;2022-08-21T07:25:38;6.43;;;2.78;;
72791;SDS011;60907;53.268;8.764;2022-08-21T07:28:04;5.13;;;2.20;;
72791;SDS011;60907;53.268;8.764;2022-08-21T07:30:29;6.15;;;2.35;;
72791;SDS011;60907;53.268;8.764;2022-08-21T07:32:55;4.75;;;2.50;;
72791;SDS011;60907;53.268;8.764;2022-08-21T07:35:21;8.02;;;2.10;;
72791;SDS011;60907;53.268;8.764;2022-08-21T07:37:47;4.82;;;2.40;;
72791;SDS011;60907;53.268;8.764;2022-08-21T07:40:13;6.05;;;2.40;;
72791;SDS011;60907;53.268;8.764;2022-08-21T07:42:44;2.90;;;1.90;;
72791;SDS011;60907;53.268;8.764;2022-08-21T07:45:11;5.82;;;2.50;;
72791;SDS011;60907;53.268;8.764;2022-08-21T07:47:37;5.07;;;1.90;;
72791;SDS011;60907;53.268;8.764;2022-08-21T07:50:04;3.67;;;1.70;;
72791;SDS011;60907;53.268;8.764;2022-08-21T07:52:30;6.18;;;1.85;;
72791;SDS011;60907;53.268;8.764;2022-08-21T07:54:57;5.43;;;1.48;;
72791;SDS011;60907;53.268;8.764;2022-08-21T07:57:23;6.00;;;2.03;;
72791;SDS011;60907;53.268;8.764;2022-08-21T07:59:48;7.80;;;2.05;;
72791;SDS011;60907;53.268;8.764;2022-08-21T08:02:23;7.40;;;1.80;;
72791;SDS011;60907;53.268;8.764;2022-08-21T08:04:50;6.45;;;1.95;;
72791;SDS011;60907;53.268;8.764;2022-08-21T08:07:15;8.20;;;1.60;;
72791;SDS011;60907;53.268;8.764;2022-08-21T08:09:41;2.95;;;1.65;;
72791;SDS011;60907;53.268;8.764;2022-08-21T08:12:06;3.92;;;1.60;;
72791;SDS011;60907;53.268;8.764;2022-08-21T08:14:31;4.45;;;1.13;;
72791;SDS011;60907;53.268;8.764;2022-08-21T08:16:58;4.32;;;2.08;;
72791;SDS011;60907;53.268;8.764;2022-08-21T08:19:23;5.88;;;1.65;;
72791;SDS011;60907;53.268;8.764;2022-08-21T08:21:49;6.03;;;1.77;;
72791;SDS011;60907;53.268;8.764;2022-08-21T08:24:14;4.03;;;1.60;;
72791;SDS011;60907;53.268;8.764;2022-08-21T08:26:40;4.18;;;1.63;;
72791;SDS011;60907;53.268;8.764;2022-08-21T08:29:05;3.10;;;1.20;;
72791;SDS011;60907;53.268;8.764;2022-08-21T08:31:30;10.63;;;1.83;;
72791;SDS011;60907;53.268;8.764;2022-08-21T08:33:56;6.70;;;1.83;;
72791;SDS011;60907;53.268;8.764;2022-08-21T08:36:21;3.07;;;1.70;;
72791;SDS011;60907;53.268;8.764;2022-08-21T08:38:57;5.95;;;1.90;;
72791;SDS011;60907;53.268;8.764;2022-08-21T08:41:23;3.25;;;1.10;;
72791;SDS011;60907;53.268;8.764;2022-08-21T08:43:49;3.15;;;1.50;;
72791;SDS011;60907;53.268;8.764;2022-08-21T08:46:18;3.03;;;1.73;;
72791;SDS011;60907;53.268;8.764;2022-08-21T08:49:00;5.60;;;1.50;;
72791;SDS011;60907;53.268;8.764;2022-08-21T08:54:05;4.68;;;1.70;;
72791;SDS011;60907;53.268;8.764;2022-08-21T08:56:35;4.47;;;1.13;;
72791;SDS011;60907;53.268;8.764;2022-08-21T08:59:07;5.10;;;1.50;;
72791;SDS011;60907;53.268;8.764;2022-08-21T09:01:35;4.38;;;1.15;;
72791;SDS011;60907;53.268;8.764;2022-08-21T09:04:00;3.63;;;1.00;;
72791;SDS011;60907;53.268;8.764;2022-08-21T09:11:45;3.25;;;1.20;;
72791;SDS011;60907;53.268;8.764;2022-08-21T09:22:37;5.80;;;1.42;;
72791;SDS011;60907;53.268;8.764;2022-08-21T09:27:43;1.48;;;0.90;;
72791;SDS011;60907;53.268;8.764;2022-08-21T09:30:08;4.45;;;1.20;;
72791;SDS011;60907;53.268;8.764;2022-08-21T09:32:35;4.45;;;1.73;;
72791;SDS011;60907;53.268;8.764;2022-08-21T09:37:32;5.38;;;1.52;;
72791;SDS011;60907;53.268;8.764;2022-08-21T09:40:00;5.35;;;1.05;;
72791;SDS011;60907;53.268;8.764;2022-08-21T09:42:27;3.97;;;0.88;;
72791;SDS011;60907;53.268;8.764;2022-08-21T09:45:32;4.75;;;1.45;;
72791;SDS011;60907;53.268;8.764;2022-08-21T09:47:50;4.35;;;0.85;;
72791;SDS011;60907;53.268;8.764;2022-08-21T09:50:17;3.63;;;1.30;;
72791;SDS011;60907;53.268;8.764;2022-08-21T09:52:46;6.10;;;1.27;;
72791;SDS011;60907;53.268;8.764;2022-08-21T09:55:19;7.28;;;2.03;;
72791;SDS011;60907;53.268;8.764;2022-08-21T09:58:05;5.97;;;1.30;;
72791;SDS011;60907;53.268;8.764;2022-08-21T10:00:32;4.93;;;1.33;;
72791;SDS011;60907;53.268;8.764;2022-08-21T10:08:30;5.45;;;1.40;;
72791;SDS011;60907;53.268;8.764;2022-08-21T10:11:01;5.78;;;1.95;;
72791;SDS011;60907;53.268;8.764;2022-08-21T10:13:38;4.38;;;1.33;;
72791;SDS011;60907;53.268;8.764;2022-08-21T10:16:15;6.82;;;1.73;;
72791;SDS011;60907;53.268;8.764;2022-08-21T10:18:59;7.57;;;1.85;;
72791;SDS011;60907;53.268;8.764;2022-08-21T10:22:08;7.65;;;1.70;;
72791;SDS011;60907;53.268;8.764;2022-08-21T10:24:55;7.13;;;1.85;;
72791;SDS011;60907;53.268;8.764;2022-08-21T10:33:25;4.95;;;1.65;;
72791;SDS011;60907;53.268;8.764;2022-08-21T10:44:30;5.38;;;2.08;;
72791;SDS011;60907;53.268;8.764;2022-08-21T10:55:16;3.75;;;1.50;;
72791;SDS011;60907;53.268;8.764;2022-08-21T10:57:50;4.45;;;1.35;;
72791;SDS011;60907;53.268;8.764;2022-08-21T11:00:23;2.72;;;1.23;;
72791;SDS011;60907;53.268;8.764;2022-08-21T11:02:56;4.60;;;1.23;;
72791;SDS011;60907;53.268;8.764;2022-08-21T11:08:12;4.00;;;1.20;;
72791;SDS011;60907;53.268;8.764;2022-08-21T11:13:36;4.60;;;1.13;;
72791;SDS011;60907;53.268;8.764;2022-08-21T11:21:48;4.78;;;1.23;;
72791;SDS011;60907;53.268;8.764;2022-08-21T11:24:32;4.25;;;1.45;;
72791;SDS011;60907;53.268;8.764;2022-08-21T11:29:36;6.40;;;1.55;;
72791;SDS011;60907;53.268;8.764;2022-08-21T11:35:02;5.05;;;1.30;;
72791;SDS011;60907;53.268;8.764;2022-08-21T11:37:50;4.35;;;1.55;;
72791;SDS011;60907;53.268;8.764;2022-08-21T11:43:47;4.47;;;1.55;;
72791;SDS011;60907;53.268;8.764;2022-08-21T11:45:51;2.35;;;1.42;;
72791;SDS011;60907;53.268;8.764;2022-08-21T11:51:18;4.50;;;1.25;;
72791;SDS011;60907;53.268;8.764;2022-08-21T11:56:25;3.15;;;1.42;;
72791;SDS011;60907;53.268;8.764;2022-08-21T11:58:55;3.75;;;1.38;;
72791;SDS011;60907;53.268;8.764;2022-08-21T12:01:24;3.53;;;1.30;;
72791;SDS011;60907;53.268;8.764;2022-08-21T12:03:58;4.20;;;1.45;;
72791;SDS011;60907;53.268;8.764;2022-08-21T12:06:31;3.63;;;1.05;;
72791;SDS011;60907;53.268;8.764;2022-08-21T12:09:01;5.25;;;1.73;;
72791;SDS011;60907;53.268;8.764;2022-08-21T12:14:42;4.43;;;1.10;;
72791;SDS011;60907;53.268;8.764;2022-08-21T12:17:22;4.85;;;1.08;;
72791;SDS011;60907;53.268;8.764;2022-08-21T12:19:58;3.55;;;1.02;;
72791;SDS011;60907;53.268;8.764;2022-08-21T12:22:38;4.00;;;1.45;;
72791;SDS011;60907;53.268;8.764;2022-08-21T12:27:45;3.88;;;1.17;;
72791;SDS011;60907;53.268;8.764;2022-08-21T12:35:24;4.85;;;1.27;;
72791;SDS011;60907;53.268;8.764;2022-08-21T12:38:02;10.57;;;7.45;;
72791;SDS011;60907;53.268;8.764;2022-08-21T12:40:43;5.65;;;2.83;;
72791;SDS011;60907;53.268;8.764;2022-08-21T12:43:13;7.13;;;5.18;;
72791;SDS011;60907;53.268;8.764;2022-08-21T12:45:46;13.23;;;9.70;;
72791;SDS011;60907;53.268;8.764;2022-08-21T12:51:18;13.10;;;7.03;;
72791;SDS011;60907;53.268;8.764;2022-08-21T12:53:49;5.82;;;1.95;;
72791;SDS011;60907;53.268;8.764;2022-08-21T12:56:19;4.90;;;1.48;;
72791;SDS011;60907;53.268;8.764;2022-08-21T12:58:54;3.22;;;1.20;;
72791;SDS011;60907;53.268;8.764;2022-08-21T13:03:51;3.28;;;1.20;;
72791;SDS011;60907;53.268;8.764;2022-08-21T13:06:19;3.63;;;1.40;;
72791;SDS011;60907;53.268;8.764;2022-08-21T13:11:11;4.68;;;1.33;;
72791;SDS011;60907;53.268;8.764;2022-08-21T13:13:40;3.53;;;1.25;;
72791;SDS011;60907;53.268;8.764;2022-08-21T13:16:06;4.18;;;1.25;;
72791;SDS011;60907;53.268;8.764;2022-08-21T13:18:34;5.95;;;2.00;;
72791;SDS011;60907;53.268;8.764;2022-08-21T13:21:09;3.78;;;1.25;;
72791;SDS011;60907;53.268;8.764;2022-08-21T13:23:37;3.47;;;1.20;;
72791;SDS011;60907;53.268;8.764;2022-08-21T13:26:11;2.25;;;1.15;;
72791;SDS011;60907;53.268;8.764;2022-08-21T13:28:41;2.45;;;1.27;;
72791;SDS011;60907;53.268;8.764;2022-08-21T13:31:07;2.05;;;1.10;;
72791;SDS011;60907;53.268;8.764;2022-08-21T13:33:38;3.25;;;1.00;;
72791;SDS011;60907;53.268;8.764;2022-08-21T13:36:08;1.80;;;1.00;;
72791;SDS011;60907;53.268;8.764;2022-08-21T13:38:42;3.47;;;1.17;;
72791;SDS011;60907;53.268;8.764;2022-08-21T13:41:16;2.25;;;1.30;;
72791;SDS011;60907;53.268;8.764;2022-08-21T13:43:49;2.38;;;1.40;;
72791;SDS011;60907;53.268;8.764;2022-08-21T13:46:16;2.90;;;0.88;;
72791;SDS011;60907;53.268;8.764;2022-08-21T13:51:08;4.33;;;1.83;;
72791;SDS011;60907;53.268;8.764;2022-08-21T13:56:06;3.33;;;1.30;;
72791;SDS011;60907;53.268;8.764;2022-08-21T13:58:34;2.28;;;1.23;;
72791;SDS011;60907;53.268;8.764;2022-08-21T14:01:16;3.97;;;1.02;;
72791;SDS011;60907;53.268;8.764;2022-08-21T14:03:45;3.20;;;1.35;;
72791;SDS011;60907;53.268;8.764;2022-08-21T14:06:14;2.60;;;1.40;;
72791;SDS011;60907;53.268;8.764;2022-08-21T14:09:31;3.95;;;1.05;;
72791;SDS011;60907;53.268;8.764;2022-08-21T14:11:34;4.03;;;1.00;;
72791;SDS011;60907;53.268;8.764;2022-08-21T14:14:02;2.42;;;1.25;;
72791;SDS011;60907;53.268;8.764;2022-08-21T14:16:43;2.58;;;1.23;;
72791;SDS011;60907;53.268;8.764;2022-08-21T14:19:18;2.60;;;1.55;;
72791;SDS011;60907;53.268;8.764;2022-08-21T14:21:43;1.98;;;1.17;;
72791;SDS011;60907;53.268;8.764;2022-08-21T14:26:49;2.88;;;1.13;;
72791;SDS011;60907;53.268;8.764;2022-08-21T14:29:16;4.30;;;1.23;;
72791;SDS011;60907;53.268;8.764;2022-08-21T14:31:43;2.92;;;1.00;;
72791;SDS011;60907;53.268;8.764;2022-08-21T14:34:14;3.42;;;0.93;;
72791;SDS011;60907;53.268;8.764;2022-08-21T14:36:41;1.70;;;1.08;;
72791;SDS011;60907;53.268;8.764;2022-08-21T14:39:08;2.72;;;1.30;;
72791;SDS011;60907;53.268;8.764;2022-08-21T14:41:33;4.90;;;1.33;;
72791;SDS011;60907;53.268;8.764;2022-08-21T14:43:59;3.10;;;0.93;;
72791;SDS011;60907;53.268;8.764;2022-08-21T14:46:25;2.05;;;1.00;;
72791;SDS011;60907;53.268;8.764;2022-08-21T14:48:52;5.00;;;1.20;;
72791;SDS011;60907;53.268;8.764;2022-08-21T14:51:17;3.85;;;1.33;;
72791;SDS011;60907;53.268;8.764;2022-08-21T14:53:43;2.92;;;1.33;;
72791;SDS011;60907;53.268;8.764;2022-08-21T14:56:09;3.00;;;1.27;;
72791;SDS011;60907;53.268;8.764;2022-08-21T14:58:37;3.38;;;1.15;;
72791;SDS011;60907;53.268;8.764;2022-08-21T15:01:05;1.83;;;0.85;;
72791;SDS011;60907;53.268;8.764;2022-08-21T15:03:31;2.45;;;1.02;;
72791;SDS011;60907;53.268;8.764;2022-08-21T15:05:57;2.97;;;1.08;;
72791;SDS011;60907;53.268;8.764;2022-08-21T15:08:23;2.53;;;1.38;;
72791;SDS011;60907;53.268;8.764;2022-08-21T15:10:48;1.20;;;0.80;;
72791;SDS011;60907;53.268;8.764;2022-08-21T15:13:14;3.10;;;1.37;;
72791;SDS011;60907;53.268;8.764;2022-08-21T15:15:41;4.20;;;1.10;;
72791;SDS011;60907;53.268;8.764;2022-08-21T15:18:08;1.90;;;0.95;;
72791;SDS011;60907;53.268;8.764;2022-08-21T15:20:34;2.85;;;0.93;;
72791;SDS011;60907;53.268;8.764;2022-08-21T15:22:59;1.52;;;0.98;;
72791;SDS011;60907;53.268;8.764;2022-08-21T15:25:25;1.10;;;0.95;;
72791;SDS011;60907;53.268;8.764;2022-08-21T15:27:50;2.67;;;1.05;;
72791;SDS011;60907;53.268;8.764;2022-08-21T15:30:16;1.23;;;0.85;;
72791;SDS011;60907;53.268;8.764;2022-08-21T15:32:41;4.43;;;1.13;;
72791;SDS011;60907;53.268;8.764;2022-08-21T15:35:07;2.83;;;1.10;;
72791;SDS011;60907;53.268;8.764;2022-08-21T15:37:33;2.00;;;1.00;;
72791;SDS011;60907;53.268;8.764;2022-08-21T15:39:59;3.25;;;1.40;;
72791;SDS011;60907;53.268;8.764;2022-08-21T15:42:24;5.03;;;1.00;;
72791;SDS011;60907;53.268;8.764;2022-08-21T15:44:51;3.22;;;0.98;;
72791;SDS011;60907;53.268;8.764;2022-08-21T15:47:19;1.60;;;0.75;;
72791;SDS011;60907;53.268;8.764;2022-08-21T15:49:46;2.55;;;0.93;;
72791;SDS011;60907;53.268;8.764;2022-08-21T15:52:16;3.22;;;1.15;;
72791;SDS011;60907;53.268;8.764;2022-08-21T15:54:43;2.08;;;1.10;;
72791;SDS011;60907;53.268;8.764;2022-08-21T15:57:09;5.15;;;1.05;;
72791;SDS011;60907;53.268;8.764;2022-08-21T15:59:42;4.57;;;1.30;;
72791;SDS011;60907;53.268;8.764;2022-08-21T16:02:12;8.38;;;1.52;;
72791;SDS011;60907;53.268;8.764;2022-08-21T16:04:39;6.25;;;1.23;;
72791;SDS011;60907;53.268;8.764;2022-08-21T16:07:05;3.85;;;1.05;;
72791;SDS011;60907;53.268;8.764;2022-08-21T16:09:30;1.70;;;0.95;;
72791;SDS011;60907;53.268;8.764;2022-08-21T16:11:56;2.10;;;1.20;;
72791;SDS011;60907;53.268;8.764;2022-08-21T16:14:23;1.75;;;1.10;;
72791;SDS011;60907;53.268;8.764;2022-08-21T16:16:48;2.55;;;1.00;;
72791;SDS011;60907;53.268;8.764;2022-08-21T16:19:14;2.78;;;1.13;;
72791;SDS011;60907;53.268;8.764;2022-08-21T16:21:39;2.95;;;1.10;;
72791;SDS011;60907;53.268;8.764;2022-08-21T16:24:05;1.77;;;0.80;;
72791;SDS011;60907;53.268;8.764;2022-08-21T16:26:30;1.75;;;1.10;;
72791;SDS011;60907;53.268;8.764;2022-08-21T16:28:56;5.32;;;1.52;;
72791;SDS011;60907;53.268;8.764;2022-08-21T16:31:24;4.05;;;1.40;;
72791;SDS011;60907;53.268;8.764;2022-08-21T16:33:51;7.65;;;1.70;;